sensor_id;sensor_type;location;lat;lon;timestamp;pressure;altitude;pressure_sealevel;temperature;humidity
77041;BME280;65974;42.664;23.264;2023-04-01T00:00:24;93504.03;;;10.78;57.43
77041;BME280;65974;42.664;23.264;2023-04-01T00:02:49;93517.41;;;10.75;58.34
77041;BME280;65974;42.664;23.264;2023-04-01T00:05:15;93512.88;;;10.72;58.07
77041;BME280;65974;42.664;23.264;2023-04-01T00:07:42;93512.88;;;10.72;57.56
77041;BME280;65974;42.664;23.264;2023-04-01T00:10:10;93519.72;;;10.73;58.07
77041;BME280;65974;42.664;23.264;2023-04-01T00:12:36;93514.44;;;10.69;58.31
77041;BME280;65974;42.664;23.264;2023-04-01T00:15:03;93514.00;;;10.74;58.33
77041;BME280;65974;42.664;23.264;2023-04-01T00:17:29;93509.84;;;10.70;58.56
77041;BME280;65974;42.664;23.264;2023-04-01T00:19:56;93522.81;;;10.68;59.00
77041;BME280;65974;42.664;23.264;2023-04-01T00:22:22;93525.44;;;10.71;58.67
77041;BME280;65974;42.664;23.264;2023-04-01T00:24:48;93516.34;;;10.69;59.18
77041;BME280;65974;42.664;23.264;2023-04-01T00:27:13;93520.50;;;10.70;59.50
77041;BME280;65974;42.664;23.264;2023-04-01T00:29:42;93524.69;;;10.71;59.65
77041;BME280;65974;42.664;23.264;2023-04-01T00:32:07;93520.56;;;10.66;59.51
77041;BME280;65974;42.664;23.264;2023-04-01T00:34:33;93513.06;;;10.58;60.27
77041;BME280;65974;42.664;23.264;2023-04-01T00:36:58;93504.38;;;10.54;60.53
77041;BME280;65974;42.664;23.264;2023-04-01T00:39:24;93502.75;;;10.60;60.34
77041;BME280;65974;42.664;23.264;2023-04-01T00:41:49;93502.75;;;10.60;60.53
77041;BME280;65974;42.664;23.264;2023-04-01T00:44:22;93494.06;;;10.56;61.12
77041;BME280;65974;42.664;23.264;2023-04-01T00:46:49;93496.81;;;10.49;61.29
77041;BME280;65974;42.664;23.264;2023-04-01T00:49:21;93495.00;;;10.42;61.26
77041;BME280;65974;42.664;23.264;2023-04-01T00:51:48;93493.53;;;10.38;60.91
77041;BME280;65974;42.664;23.264;2023-04-01T00:54:15;93498.81;;;10.41;60.98
77041;BME280;65974;42.664;23.264;2023-04-01T00:56:45;93482.16;;;10.34;61.04
77041;BME280;65974;42.664;23.264;2023-04-01T00:59:18;93483.34;;;10.33;61.54
77041;BME280;65974;42.664;23.264;2023-04-01T01:01:46;93468.63;;;10.21;61.23
77041;BME280;65974;42.664;23.264;2023-04-01T01:04:32;93457.28;;;10.17;61.47
77041;BME280;65974;42.664;23.264;2023-04-01T01:12:20;93451.25;;;10.09;61.63
77041;BME280;65974;42.664;23.264;2023-04-01T01:23:57;93431.56;;;10.03;61.05
77041;BME280;65974;42.664;23.264;2023-04-01T01:34:39;93421.78;;;9.93;60.64
77041;BME280;65974;42.664;23.264;2023-04-01T01:37:10;93427.78;;;10.01;60.10
77041;BME280;65974;42.664;23.264;2023-04-01T01:39:38;93424.72;;;10.02;59.83
77041;BME280;65974;42.664;23.264;2023-04-01T01:42:08;93416.25;;;10.14;59.22
77041;BME280;65974;42.664;23.264;2023-04-01T01:44:37;93434.03;;;10.21;58.47
77041;BME280;65974;42.664;23.264;2023-04-01T01:47:03;93432.63;;;10.09;60.00
77041;BME280;65974;42.664;23.264;2023-04-01T01:49:32;93422.44;;;10.01;59.91
77041;BME280;65974;42.664;23.264;2023-04-01T01:51:59;93410.16;;;10.18;59.13
77041;BME280;65974;42.664;23.264;2023-04-01T01:54:25;93407.13;;;10.16;58.86
77041;BME280;65974;42.664;23.264;2023-04-01T01:56:55;93398.03;;;10.13;58.79
77041;BME280;65974;42.664;23.264;2023-04-01T01:59:24;93405.53;;;10.22;59.19
77041;BME280;65974;42.664;23.264;2023-04-01T02:01:53;93413.81;;;10.27;57.52
77041;BME280;65974;42.664;23.264;2023-04-01T02:04:21;93402.44;;;10.53;55.55
77041;BME280;65974;42.664;23.264;2023-04-01T02:07:00;93398.59;;;10.58;55.93
77041;BME280;65974;42.664;23.264;2023-04-01T02:09:27;93380.66;;;10.62;55.57
77041;BME280;65974;42.664;23.264;2023-04-01T02:12:00;93383.66;;;10.64;55.43
77041;BME280;65974;42.664;23.264;2023-04-01T02:14:39;93383.59;;;10.67;55.38
77041;BME280;65974;42.664;23.264;2023-04-01T02:17:15;93389.69;;;10.68;55.08
77041;BME280;65974;42.664;23.264;2023-04-01T02:19:54;93379.81;;;10.65;55.04
77041;BME280;65974;42.664;23.264;2023-04-01T02:22:26;93386.31;;;10.64;55.68
77041;BME280;65974;42.664;23.264;2023-04-01T02:24:56;93395.91;;;10.58;56.16
77041;BME280;65974;42.664;23.264;2023-04-01T02:27:23;93404.69;;;10.55;55.80
77041;BME280;65974;42.664;23.264;2023-04-01T02:29:50;93397.97;;;10.47;56.56
77041;BME280;65974;42.664;23.264;2023-04-01T02:32:16;93399.16;;;10.42;56.85
77041;BME280;65974;42.664;23.264;2023-04-01T02:34:43;93399.16;;;10.42;57.16
77041;BME280;65974;42.664;23.264;2023-04-01T02:37:08;93404.28;;;10.30;57.59
77041;BME280;65974;42.664;23.264;2023-04-01T02:39:35;93405.81;;;10.27;58.32
77041;BME280;65974;42.664;23.264;2023-04-01T02:42:01;93399.81;;;10.23;57.99
77041;BME280;65974;42.664;23.264;2023-04-01T02:44:26;93401.25;;;10.28;58.18
77041;BME280;65974;42.664;23.264;2023-04-01T02:46:52;93410.03;;;10.25;57.57
77041;BME280;65974;42.664;23.264;2023-04-01T02:49:18;93400.84;;;10.33;57.50
77041;BME280;65974;42.664;23.264;2023-04-01T02:51:43;93415.56;;;10.37;57.39
77041;BME280;65974;42.664;23.264;2023-04-01T02:54:08;93418.91;;;10.45;56.90
77041;BME280;65974;42.664;23.264;2023-04-01T02:56:34;93420.94;;;10.34;58.02
77041;BME280;65974;42.664;23.264;2023-04-01T02:58:59;93417.53;;;10.33;57.48
77041;BME280;65974;42.664;23.264;2023-04-01T03:01:25;93418.28;;;10.34;57.89
77041;BME280;65974;42.664;23.264;2023-04-01T03:03:50;93421.63;;;10.41;56.69
77041;BME280;65974;42.664;23.264;2023-04-01T03:06:17;93432.75;;;10.33;57.67
77041;BME280;65974;42.664;23.264;2023-04-01T03:08:43;93428.22;;;10.30;57.52
77041;BME280;65974;42.664;23.264;2023-04-01T03:11:09;93434.97;;;10.38;57.32
77041;BME280;65974;42.664;23.264;2023-04-01T03:13:35;93428.94;;;10.34;57.47
77041;BME280;65974;42.664;23.264;2023-04-01T03:16:01;93429.75;;;10.31;58.04
77041;BME280;65974;42.664;23.264;2023-04-01T03:18:26;93428.22;;;10.30;58.23
77041;BME280;65974;42.664;23.264;2023-04-01T03:20:52;93451.81;;;10.28;59.24
77041;BME280;65974;42.664;23.264;2023-04-01T03:23:17;93438.09;;;10.33;58.77
77041;BME280;65974;42.664;23.264;2023-04-01T03:25:44;93438.72;;;10.70;57.39
77041;BME280;65974;42.664;23.264;2023-04-01T03:28:10;93433.50;;;10.90;54.96
77041;BME280;65974;42.664;23.264;2023-04-01T03:30:35;93432.50;;;11.04;55.16
77041;BME280;65974;42.664;23.264;2023-04-01T03:33:01;93424.53;;;11.27;54.23
77041;BME280;65974;42.664;23.264;2023-04-01T03:35:27;93414.03;;;11.39;55.26
77041;BME280;65974;42.664;23.264;2023-04-01T03:37:53;93410.34;;;11.33;55.14
77041;BME280;65974;42.664;23.264;2023-04-01T03:40:19;93390.94;;;11.33;55.67
77041;BME280;65974;42.664;23.264;2023-04-01T03:42:45;93377.91;;;11.38;55.15
77041;BME280;65974;42.664;23.264;2023-04-01T03:45:11;93376.53;;;11.30;57.52
77041;BME280;65974;42.664;23.264;2023-04-01T03:47:39;93361.97;;;11.12;58.47
77041;BME280;65974;42.664;23.264;2023-04-01T03:50:08;93355.91;;;10.88;60.88
77041;BME280;65974;42.664;23.264;2023-04-01T03:52:34;93343.03;;;10.83;60.60
77041;BME280;65974;42.664;23.264;2023-04-01T03:55:00;93337.19;;;10.68;61.77
77041;BME280;65974;42.664;23.264;2023-04-01T03:57:27;93342.25;;;10.59;61.36
77041;BME280;65974;42.664;23.264;2023-04-01T03:59:53;93335.13;;;10.53;62.78
77041;BME280;65974;42.664;23.264;2023-04-01T04:02:19;93318.56;;;10.42;61.89
77041;BME280;65974;42.664;23.264;2023-04-01T04:04:44;93321.97;;;10.42;62.17
77041;BME280;65974;42.664;23.264;2023-04-01T04:07:11;93307.97;;;10.38;62.27
77041;BME280;65974;42.664;23.264;2023-04-01T04:09:37;93295.47;;;10.35;61.76
77041;BME280;65974;42.664;23.264;2023-04-01T04:12:02;93290.81;;;10.43;60.32
77041;BME280;65974;42.664;23.264;2023-04-01T04:14:28;93297.44;;;10.54;59.81
77041;BME280;65974;42.664;23.264;2023-04-01T04:16:53;93303.13;;;10.56;59.40
77041;BME280;65974;42.664;23.264;2023-04-01T04:19:19;93301.63;;;10.55;60.66
77041;BME280;65974;42.664;23.264;2023-04-01T04:21:45;93302.22;;;10.43;62.36
77041;BME280;65974;42.664;23.264;2023-04-01T04:24:10;93298.47;;;10.37;62.26
77041;BME280;65974;42.664;23.264;2023-04-01T04:26:36;93285.91;;;10.38;61.69
77041;BME280;65974;42.664;23.264;2023-04-01T04:29:02;93285.91;;;10.38;61.65
77041;BME280;65974;42.664;23.264;2023-04-01T04:31:28;93306.88;;;10.36;62.24
77041;BME280;65974;42.664;23.264;2023-04-01T04:33:53;93287.63;;;10.25;63.31
77041;BME280;65974;42.664;23.264;2023-04-01T04:36:20;93274.41;;;10.21;63.73
77041;BME280;65974;42.664;23.264;2023-04-01T04:38:46;93296.94;;;10.13;64.37
77041;BME280;65974;42.664;23.264;2023-04-01T04:41:13;93285.59;;;10.05;64.27
77041;BME280;65974;42.664;23.264;2023-04-01T04:43:40;93268.50;;;10.06;63.05
77041;BME280;65974;42.664;23.264;2023-04-01T04:46:09;93268.78;;;10.16;63.43
77041;BME280;65974;42.664;23.264;2023-04-01T04:48:36;93267.69;;;10.09;64.46
77041;BME280;65974;42.664;23.264;2023-04-01T04:51:02;93263.59;;;10.05;64.44
77041;BME280;65974;42.664;23.264;2023-04-01T04:53:28;93270.47;;;10.02;64.61
77041;BME280;65974;42.664;23.264;2023-04-01T04:55:54;93260.25;;;9.97;65.26
77041;BME280;65974;42.664;23.264;2023-04-01T04:58:20;93241.69;;;9.94;65.99
77041;BME280;65974;42.664;23.264;2023-04-01T05:00:46;93255.75;;;9.94;66.58
77041;BME280;65974;42.664;23.264;2023-04-01T05:03:12;93259.22;;;9.91;65.08
77041;BME280;65974;42.664;23.264;2023-04-01T05:05:39;93246.41;;;9.83;65.78
77041;BME280;65974;42.664;23.264;2023-04-01T05:08:04;93251.66;;;9.86;65.67
77041;BME280;65974;42.664;23.264;2023-04-01T05:10:30;93245.75;;;9.75;66.71
77041;BME280;65974;42.664;23.264;2023-04-01T05:12:56;93230.66;;;9.69;66.88
77041;BME280;65974;42.664;23.264;2023-04-01T05:15:22;93240.13;;;9.70;64.49
77041;BME280;65974;42.664;23.264;2023-04-01T05:17:48;93210.81;;;9.73;63.36
77041;BME280;65974;42.664;23.264;2023-04-01T05:20:14;93228.34;;;9.71;62.28
77041;BME280;65974;42.664;23.264;2023-04-01T05:22:40;93215.34;;;9.76;60.54
77041;BME280;65974;42.664;23.264;2023-04-01T05:25:05;93210.66;;;9.84;61.31
77041;BME280;65974;42.664;23.264;2023-04-01T05:27:31;93195.13;;;9.82;62.17
77041;BME280;65974;42.664;23.264;2023-04-01T05:29:57;93217.50;;;9.85;61.42
77041;BME280;65974;42.664;23.264;2023-04-01T05:32:22;93219.13;;;9.79;61.87
77041;BME280;65974;42.664;23.264;2023-04-01T05:34:50;93210.66;;;9.87;62.65
77041;BME280;65974;42.664;23.264;2023-04-01T05:37:16;93207.88;;;9.94;62.67
77041;BME280;65974;42.664;23.264;2023-04-01T05:39:42;93219.22;;;9.98;62.82
77041;BME280;65974;42.664;23.264;2023-04-01T05:42:07;93217.53;;;10.08;61.41
77041;BME280;65974;42.664;23.264;2023-04-01T05:44:34;93212.44;;;10.21;62.13
77041;BME280;65974;42.664;23.264;2023-04-01T05:47:00;93207.88;;;10.21;62.40
77041;BME280;65974;42.664;23.264;2023-04-01T05:49:25;93205.97;;;10.22;62.26
77041;BME280;65974;42.664;23.264;2023-04-01T05:51:51;93187.28;;;10.25;62.77
77041;BME280;65974;42.664;23.264;2023-04-01T05:54:17;93203.91;;;10.33;62.04
77041;BME280;65974;42.664;23.264;2023-04-01T05:56:43;93201.78;;;10.44;60.27
77041;BME280;65974;42.664;23.264;2023-04-01T05:59:10;93201.63;;;10.54;60.97
77041;BME280;65974;42.664;23.264;2023-04-01T06:01:35;93190.31;;;10.70;60.49
77041;BME280;65974;42.664;23.264;2023-04-01T06:04:01;93196.56;;;10.83;59.64
77041;BME280;65974;42.664;23.264;2023-04-01T06:06:28;93198.22;;;10.97;58.29
77041;BME280;65974;42.664;23.264;2023-04-01T06:08:56;93198.00;;;11.07;56.80
77041;BME280;65974;42.664;23.264;2023-04-01T06:19:27;93197.84;;;11.53;55.41
77041;BME280;65974;42.664;23.264;2023-04-01T06:22:05;93212.66;;;11.54;54.45
77041;BME280;65974;42.664;23.264;2023-04-01T06:41:21;93159.16;;;11.81;54.58
77041;BME280;65974;42.664;23.264;2023-04-01T06:44:23;93172.09;;;11.83;53.41
77041;BME280;65974;42.664;23.264;2023-04-01T06:46:51;93177.25;;;11.90;53.32
77041;BME280;65974;42.664;23.264;2023-04-01T06:49:33;93180.25;;;11.92;53.02
77041;BME280;65974;42.664;23.264;2023-04-01T06:54:37;93140.25;;;11.92;53.39
77041;BME280;65974;42.664;23.264;2023-04-01T06:57:14;93161.78;;;12.01;52.66
77041;BME280;65974;42.664;23.264;2023-04-01T06:59:44;93140.91;;;12.12;52.14
77041;BME280;65974;42.664;23.264;2023-04-01T07:04:39;93147.91;;;12.06;51.79
77041;BME280;65974;42.664;23.264;2023-04-01T07:07:14;93169.00;;;12.16;51.58
77041;BME280;65974;42.664;23.264;2023-04-01T07:09:49;93153.59;;;12.24;51.54
77041;BME280;65974;42.664;23.264;2023-04-01T07:12:23;93152.75;;;12.27;51.06
77041;BME280;65974;42.664;23.264;2023-04-01T07:14:57;93137.56;;;12.24;51.83
77041;BME280;65974;42.664;23.264;2023-04-01T07:17:28;93140.38;;;12.33;52.10
77041;BME280;65974;42.664;23.264;2023-04-01T07:20:05;93159.59;;;12.28;52.54
77041;BME280;65974;42.664;23.264;2023-04-01T07:22:42;93171.94;;;12.22;52.18
77041;BME280;65974;42.664;23.264;2023-04-01T07:27:42;93152.41;;;12.25;52.86
77041;BME280;65974;42.664;23.264;2023-04-01T07:30:17;93167.59;;;12.28;52.21
77041;BME280;65974;42.664;23.264;2023-04-01T07:35:30;93137.31;;;12.34;52.35
77041;BME280;65974;42.664;23.264;2023-04-01T07:38:15;93176.34;;;12.44;53.19
77041;BME280;65974;42.664;23.264;2023-04-01T07:46:38;93167.06;;;12.33;53.32
77041;BME280;65974;42.664;23.264;2023-04-01T07:52:08;93162.25;;;12.28;52.93
77041;BME280;65974;42.664;23.264;2023-04-01T07:54:50;93148.25;;;12.24;52.75
77041;BME280;65974;42.664;23.264;2023-04-01T08:00:24;93138.41;;;12.21;53.08
77041;BME280;65974;42.664;23.264;2023-04-01T08:11:31;93117.66;;;12.57;52.83
77041;BME280;65974;42.664;23.264;2023-04-01T08:22:36;93099.03;;;12.82;52.22
77041;BME280;65974;42.664;23.264;2023-04-01T08:25:05;93081.72;;;12.87;52.58
77041;BME280;65974;42.664;23.264;2023-04-01T08:27:48;93092.03;;;13.01;51.69
77041;BME280;65974;42.664;23.264;2023-04-01T08:30:40;93096.47;;;13.07;51.96
77041;BME280;65974;42.664;23.264;2023-04-01T08:33:14;93029.34;;;13.18;52.86
77041;BME280;65974;42.664;23.264;2023-04-01T08:35:47;93037.03;;;13.54;48.18
77041;BME280;65974;42.664;23.264;2023-04-01T08:38:23;93031.44;;;13.61;51.17
77041;BME280;65974;42.664;23.264;2023-04-01T09:00:23;93026.25;;;14.60;47.35
77041;BME280;65974;42.664;23.264;2023-04-01T09:22:05;93005.22;;;14.80;46.22
77041;BME280;65974;42.664;23.264;2023-04-01T09:24:52;93009.28;;;14.85;46.24
77041;BME280;65974;42.664;23.264;2023-04-01T09:27:29;92991.00;;;14.92;45.58
77041;BME280;65974;42.664;23.264;2023-04-01T09:30:13;92985.25;;;15.03;44.32
77041;BME280;65974;42.664;23.264;2023-04-01T09:32:56;92980.56;;;15.25;39.45
77041;BME280;65974;42.664;23.264;2023-04-01T09:40:58;92976.44;;;15.91;36.38
77041;BME280;65974;42.664;23.264;2023-04-01T10:14:52;92906.41;;;17.08;34.33
77041;BME280;65974;42.664;23.264;2023-04-01T10:23:27;92897.31;;;17.62;35.49
77041;BME280;65974;42.664;23.264;2023-04-01T10:42:13;92863.63;;;17.67;32.89
77041;BME280;65974;42.664;23.264;2023-04-01T10:53:36;92839.22;;;17.23;33.25
77041;BME280;65974;42.664;23.264;2023-04-01T11:13:01;92841.66;;;17.36;34.98
77041;BME280;65974;42.664;23.264;2023-04-01T11:27:18;92886.38;;;16.68;37.08
77041;BME280;65974;42.664;23.264;2023-04-01T11:37:34;92954.94;;;15.73;42.92
77041;BME280;65974;42.664;23.264;2023-04-01T11:40:20;92966.66;;;15.08;47.71
77041;BME280;65974;42.664;23.264;2023-04-01T11:42:57;93004.63;;;14.54;51.31
77041;BME280;65974;42.664;23.264;2023-04-01T11:59:50;93119.19;;;10.70;82.59
77041;BME280;65974;42.664;23.264;2023-04-01T12:05:00;93106.41;;;10.62;80.39
77041;BME280;65974;42.664;23.264;2023-04-01T12:10:18;93106.63;;;10.71;81.74
77041;BME280;65974;42.664;23.264;2023-04-01T12:13:14;93104.09;;;10.83;81.82
77041;BME280;65974;42.664;23.264;2023-04-01T12:18:38;93094.81;;;11.27;80.27
77041;BME280;65974;42.664;23.264;2023-04-01T12:26:26;93090.94;;;11.64;78.37
77041;BME280;65974;42.664;23.264;2023-04-01T12:35:00;93107.22;;;11.34;75.66
77041;BME280;65974;42.664;23.264;2023-04-01T12:42:54;93105.91;;;11.06;75.09
77041;BME280;65974;42.664;23.264;2023-04-01T12:59:23;93064.91;;;11.20;74.99
77041;BME280;65974;42.664;23.264;2023-04-01T13:13:03;92999.19;;;11.29;71.16
77041;BME280;65974;42.664;23.264;2023-04-01T13:21:19;92998.53;;;11.74;68.68
77041;BME280;65974;42.664;23.264;2023-04-01T13:23:56;92999.94;;;11.94;65.72
77041;BME280;65974;42.664;23.264;2023-04-01T13:29:35;93000.34;;;12.21;65.10
77041;BME280;65974;42.664;23.264;2023-04-01T13:35:35;92986.00;;;12.44;60.64
77041;BME280;65974;42.664;23.264;2023-04-01T13:38:02;92970.13;;;12.53;59.93
77041;BME280;65974;42.664;23.264;2023-04-01T13:40:44;92962.44;;;12.55;62.01
77041;BME280;65974;42.664;23.264;2023-04-01T13:43:21;92953.56;;;12.58;60.80
77041;BME280;65974;42.664;23.264;2023-04-01T13:48:39;92941.84;;;13.06;55.68
77041;BME280;65974;42.664;23.264;2023-04-01T14:08:34;92907.00;;;14.55;50.32
77041;BME280;65974;42.664;23.264;2023-04-01T14:11:17;92920.91;;;14.41;50.53
77041;BME280;65974;42.664;23.264;2023-04-01T14:19:22;92910.44;;;14.13;49.51
77041;BME280;65974;42.664;23.264;2023-04-01T14:24:52;92894.22;;;14.29;49.42
77041;BME280;65974;42.664;23.264;2023-04-01T14:33:01;92872.00;;;14.28;50.70
77041;BME280;65974;42.664;23.264;2023-04-01T14:35:46;92871.44;;;14.33;49.09
77041;BME280;65974;42.664;23.264;2023-04-01T14:49:15;92875.16;;;14.57;46.46
77041;BME280;65974;42.664;23.264;2023-04-01T14:51:43;92873.06;;;14.61;47.29
77041;BME280;65974;42.664;23.264;2023-04-01T14:56:46;92877.88;;;14.66;47.47
77041;BME280;65974;42.664;23.264;2023-04-01T15:01:55;92873.44;;;14.72;46.69
77041;BME280;65974;42.664;23.264;2023-04-01T15:24:07;92917.41;;;14.10;49.77
77041;BME280;65974;42.664;23.264;2023-04-01T15:26:52;92915.41;;;14.01;50.63
77041;BME280;65974;42.664;23.264;2023-04-01T15:39:56;92924.50;;;14.04;48.04
77041;BME280;65974;42.664;23.264;2023-04-01T15:44:55;92940.78;;;13.97;49.25
77041;BME280;65974;42.664;23.264;2023-04-01T16:04:24;93169.97;;;8.36;75.92
77041;BME280;65974;42.664;23.264;2023-04-01T16:15:09;93216.59;;;7.78;82.29
77041;BME280;65974;42.664;23.264;2023-04-01T16:20:46;93223.81;;;7.74;80.03
77041;BME280;65974;42.664;23.264;2023-04-01T16:23:26;93224.94;;;7.77;80.63
77041;BME280;65974;42.664;23.264;2023-04-01T16:34:34;93246.09;;;7.84;80.71
77041;BME280;65974;42.664;23.264;2023-04-01T16:37:11;93255.16;;;7.87;81.41
77041;BME280;65974;42.664;23.264;2023-04-01T16:47:45;93266.50;;;7.94;80.17
77041;BME280;65974;42.664;23.264;2023-04-01T16:50:24;93263.84;;;7.94;79.32
77041;BME280;65974;42.664;23.264;2023-04-01T16:56:07;93277.78;;;8.02;78.08
77041;BME280;65974;42.664;23.264;2023-04-01T16:59:06;93269.84;;;8.02;76.34
77041;BME280;65974;42.664;23.264;2023-04-01T17:04:23;93275.53;;;7.97;76.27
77041;BME280;65974;42.664;23.264;2023-04-01T17:07:19;93283.50;;;8.00;74.96
77041;BME280;65974;42.664;23.264;2023-04-01T17:31:07;93297.66;;;7.69;75.43
77041;BME280;65974;42.664;23.264;2023-04-01T17:36:36;93289.75;;;7.58;75.45
77041;BME280;65974;42.664;23.264;2023-04-01T17:47:52;93293.94;;;7.59;74.87
77041;BME280;65974;42.664;23.264;2023-04-01T17:51:05;93298.78;;;7.71;74.24
77041;BME280;65974;42.664;23.264;2023-04-01T17:56:44;93299.13;;;7.80;72.10
77041;BME280;65974;42.664;23.264;2023-04-01T18:10:32;93324.56;;;7.64;74.12
77041;BME280;65974;42.664;23.264;2023-04-01T18:23:51;93359.69;;;7.82;71.99
77041;BME280;65974;42.664;23.264;2023-04-01T18:26:26;93359.66;;;7.89;70.79
77041;BME280;65974;42.664;23.264;2023-04-01T18:28:57;93364.22;;;7.92;70.79
77041;BME280;65974;42.664;23.264;2023-04-01T18:31:32;93374.41;;;7.94;71.25
77041;BME280;65974;42.664;23.264;2023-04-01T18:34:17;93374.03;;;7.95;71.32
77041;BME280;65974;42.664;23.264;2023-04-01T18:36:53;93372.91;;;7.89;71.04
77041;BME280;65974;42.664;23.264;2023-04-01T18:39:47;93369.53;;;7.85;70.66
77041;BME280;65974;42.664;23.264;2023-04-01T18:42:17;93368.00;;;7.84;71.52
77041;BME280;65974;42.664;23.264;2023-04-01T18:44:48;93369.16;;;7.83;70.78
77041;BME280;65974;42.664;23.264;2023-04-01T18:50:02;93368.00;;;7.84;71.57
77041;BME280;65974;42.664;23.264;2023-04-01T18:52:34;93371.44;;;7.81;70.60
77041;BME280;65974;42.664;23.264;2023-04-01T18:57:51;93362.72;;;7.84;70.33
77041;BME280;65974;42.664;23.264;2023-04-01T19:00:38;93372.19;;;7.85;70.56
77041;BME280;65974;42.664;23.264;2023-04-01T19:03:27;93366.88;;;7.85;69.81
77041;BME280;65974;42.664;23.264;2023-04-01T19:05:52;93371.06;;;7.82;69.59
77041;BME280;65974;42.664;23.264;2023-04-01T19:08:32;93373.31;;;7.84;70.62
77041;BME280;65974;42.664;23.264;2023-04-01T19:14:00;93386.19;;;7.89;69.76
77041;BME280;65974;42.664;23.264;2023-04-01T19:41:00;93435.06;;;7.74;70.22
77041;BME280;65974;42.664;23.264;2023-04-01T19:51:50;93451.38;;;7.62;70.53
77041;BME280;65974;42.664;23.264;2023-04-01T19:54:44;93442.28;;;7.63;69.63
77041;BME280;65974;42.664;23.264;2023-04-01T19:57:45;93444.53;;;7.71;68.46
77041;BME280;65974;42.664;23.264;2023-04-01T20:11:37;93422.91;;;7.87;66.66
77041;BME280;65974;42.664;23.264;2023-04-01T20:14:08;93423.31;;;7.82;66.55
77041;BME280;65974;42.664;23.264;2023-04-01T20:19:24;93427.88;;;7.74;66.71
77041;BME280;65974;42.664;23.264;2023-04-01T20:21:56;93423.34;;;7.71;67.51
77041;BME280;65974;42.664;23.264;2023-04-01T20:24:33;93424.84;;;7.69;67.36
77041;BME280;65974;42.664;23.264;2023-04-01T20:27:21;93432.81;;;7.65;67.80
77041;BME280;65974;42.664;23.264;2023-04-01T20:32:35;93430.56;;;7.57;68.68
77041;BME280;65974;42.664;23.264;2023-04-01T20:40:47;93433.59;;;7.52;68.80
77041;BME280;65974;42.664;23.264;2023-04-01T20:46:22;93435.50;;;7.51;68.28
77041;BME280;65974;42.664;23.264;2023-04-01T20:51:32;93430.97;;;7.45;68.25
77041;BME280;65974;42.664;23.264;2023-04-01T20:54:31;93427.94;;;7.50;68.40
77041;BME280;65974;42.664;23.264;2023-04-01T20:57:11;93429.81;;;7.53;67.92
77041;BME280;65974;42.664;23.264;2023-04-01T21:07:49;93447.94;;;7.72;66.60
77041;BME280;65974;42.664;23.264;2023-04-01T21:12:55;93454.38;;;7.78;65.52
77041;BME280;65974;42.664;23.264;2023-04-01T21:15:27;93449.06;;;7.85;64.16
77041;BME280;65974;42.664;23.264;2023-04-01T21:18:24;93457.34;;;7.94;63.47
77041;BME280;65974;42.664;23.264;2023-04-01T21:23:53;93457.31;;;8.01;63.41
77041;BME280;65974;42.664;23.264;2023-04-01T21:37:31;93461.84;;;8.08;63.05
77041;BME280;65974;42.664;23.264;2023-04-01T22:00:08;93472.47;;;8.04;61.15
77041;BME280;65974;42.664;23.264;2023-04-01T22:05:39;93474.00;;;8.02;61.56
77041;BME280;65974;42.664;23.264;2023-04-01T22:11:07;93465.66;;;8.00;61.34
77041;BME280;65974;42.664;23.264;2023-04-01T22:14:20;93450.16;;;7.98;61.07
77041;BME280;65974;42.664;23.264;2023-04-01T22:17:00;93451.28;;;8.01;60.89
77041;BME280;65974;42.664;23.264;2023-04-01T22:20:06;93440.31;;;7.95;61.55
77041;BME280;65974;42.664;23.264;2023-04-01T22:28:12;93441.50;;;7.76;61.89
77041;BME280;65974;42.664;23.264;2023-04-01T22:30:52;93437.72;;;7.81;61.91
77041;BME280;65974;42.664;23.264;2023-04-01T22:43:59;93451.72;;;7.78;61.66
77041;BME280;65974;42.664;23.264;2023-04-01T22:49:17;93462.72;;;7.76;61.38
77041;BME280;65974;42.664;23.264;2023-04-01T22:51:52;93462.28;;;7.89;60.58
77041;BME280;65974;42.664;23.264;2023-04-01T22:54:22;93474.03;;;7.88;60.68
77041;BME280;65974;42.664;23.264;2023-04-01T22:59:40;93479.69;;;7.97;59.89
77041;BME280;65974;42.664;23.264;2023-04-01T23:02:14;93473.63;;;7.93;60.41
77041;BME280;65974;42.664;23.264;2023-04-01T23:04:43;93481.97;;;7.84;60.44
77041;BME280;65974;42.664;23.264;2023-04-01T23:10:27;93483.16;;;7.76;61.36
77041;BME280;65974;42.664;23.264;2023-04-01T23:12:56;93479.75;;;7.72;61.57
77041;BME280;65974;42.664;23.264;2023-04-01T23:15:23;93483.16;;;7.65;62.00
77041;BME280;65974;42.664;23.264;2023-04-01T23:20:32;93485.84;;;7.62;62.14
77041;BME280;65974;42.664;23.264;2023-04-01T23:23:14;93482.44;;;7.58;61.66
77041;BME280;65974;42.664;23.264;2023-04-01T23:30:50;93497.94;;;7.66;61.68
77041;BME280;65974;42.664;23.264;2023-04-01T23:38:19;93490.00;;;7.66;60.69
77041;BME280;65974;42.664;23.264;2023-04-01T23:40:47;93493.78;;;7.62;61.64
77041;BME280;65974;42.664;23.264;2023-04-01T23:43:30;93496.03;;;7.70;60.71
77041;BME280;65974;42.664;23.264;2023-04-01T23:45:58;93493.75;;;7.76;60.48
77041;BME280;65974;42.664;23.264;2023-04-01T23:48:43;93499.06;;;7.69;60.48
77041;BME280;65974;42.664;23.264;2023-04-01T23:51:18;93484.31;;;7.64;61.33
77041;BME280;65974;42.664;23.264;2023-04-01T23:53:45;93491.50;;;7.67;60.08
77041;BME280;65974;42.664;23.264;2023-04-01T23:56:11;93485.41;;;7.74;59.49
